createdAt,value
2017-10-30T00:00:30.038Z,4.50
2017-10-30T00:02:57.718Z,3.77
2017-10-30T00:05:25.348Z,5.43
2017-10-30T00:07:53.022Z,5.50
2017-10-30T00:10:20.666Z,4.63
2017-10-30T00:12:48.358Z,6.23
2017-10-30T00:15:15.996Z,4.80
2017-10-30T00:17:43.639Z,4.63
2017-10-30T00:20:11.327Z,3.00
2017-10-30T00:22:38.970Z,3.90
2017-10-30T00:25:06.686Z,3.43
2017-10-30T00:27:34.347Z,2.17
2017-10-30T00:30:02.046Z,3.23
2017-10-30T00:32:29.686Z,3.30
2017-10-30T00:34:57.367Z,4.27
2017-10-30T00:37:25.002Z,3.60
2017-10-30T00:39:52.671Z,3.93
2017-10-30T00:42:21.228Z,2.87
2017-10-30T00:44:48.910Z,3.00
2017-10-30T00:47:16.571Z,3.03
2017-10-30T00:49:44.261Z,2.70
2017-10-30T00:52:11.900Z,2.50
2017-10-30T00:54:39.575Z,2.87
2017-10-30T00:57:07.226Z,2.40
2017-10-30T00:59:34.911Z,3.47
2017-10-30T01:02:02.563Z,2.47
2017-10-30T01:04:30.213Z,2.60
2017-10-30T01:06:57.886Z,2.67
2017-10-30T01:09:25.525Z,3.23
2017-10-30T01:11:53.198Z,3.10
2017-10-30T01:14:20.868Z,2.60
2017-10-30T01:16:48.541Z,3.40
2017-10-30T01:19:16.184Z,2.73
2017-10-30T01:21:43.862Z,3.40
2017-10-30T01:24:11.562Z,3.83
2017-10-30T01:26:39.230Z,6.60
2017-10-30T01:29:06.875Z,5.20
2017-10-30T01:31:34.565Z,2.80
2017-10-30T01:34:02.218Z,3.13
2017-10-30T01:36:29.878Z,3.10
2017-10-30T01:38:57.516Z,2.83
2017-10-30T01:41:25.199Z,3.13
2017-10-30T01:43:52.846Z,3.63
2017-10-30T01:46:20.516Z,3.53
2017-10-30T01:48:48.168Z,5.50
2017-10-30T01:51:15.853Z,5.23
2017-10-30T01:53:43.493Z,5.03
2017-10-30T01:56:11.179Z,2.50
2017-10-30T01:58:38.822Z,1.80
2017-10-30T02:01:07.429Z,2.50
2017-10-30T02:03:35.067Z,4.60
2017-10-30T02:06:02.733Z,4.37
2017-10-30T02:08:30.376Z,5.23
2017-10-30T02:10:58.046Z,4.77
2017-10-30T02:13:25.708Z,6.60
2017-10-30T02:15:53.389Z,4.23
2017-10-30T02:18:21.023Z,4.50
2017-10-30T02:20:48.717Z,4.50
2017-10-30T02:23:16.403Z,3.80
2017-10-30T02:25:44.103Z,4.13
2017-10-30T02:28:11.742Z,2.13
2017-10-30T02:30:39.427Z,2.47
2017-10-30T02:33:07.100Z,1.70
2017-10-30T02:35:34.790Z,2.30
2017-10-30T02:38:02.422Z,3.40
2017-10-30T02:40:30.073Z,2.20
2017-10-30T02:42:57.763Z,2.30
2017-10-30T02:45:25.414Z,2.90
2017-10-30T02:47:53.123Z,2.57
2017-10-30T02:50:20.780Z,2.27
2017-10-30T02:52:48.455Z,2.80
2017-10-30T02:55:16.098Z,2.20
2017-10-30T02:57:43.774Z,2.73
2017-10-30T03:00:11.411Z,3.60
2017-10-30T03:02:39.097Z,3.70
2017-10-30T03:05:06.751Z,4.30
2017-10-30T03:07:34.459Z,2.40
2017-10-30T03:10:02.111Z,4.47
2017-10-30T03:12:29.783Z,2.63
2017-10-30T03:14:57.430Z,2.73
2017-10-30T03:17:25.157Z,2.90
2017-10-30T03:19:52.828Z,1.40
2017-10-30T03:22:20.552Z,3.73
2017-10-30T03:24:48.257Z,3.13
2017-10-30T03:27:15.923Z,2.37
2017-10-30T03:29:43.585Z,3.00
2017-10-30T03:32:11.288Z,2.60
2017-10-30T03:34:38.927Z,3.13
2017-10-30T03:37:06.577Z,1.67
2017-10-30T03:39:34.294Z,1.53
2017-10-30T03:42:01.934Z,2.03
2017-10-30T03:44:29.611Z,1.40
2017-10-30T03:46:57.249Z,1.27
2017-10-30T03:49:24.920Z,1.37
2017-10-30T03:51:52.559Z,1.20
2017-10-30T03:54:20.228Z,0.90
2017-10-30T03:56:47.873Z,1.40
2017-10-30T03:59:15.541Z,1.40
2017-10-30T04:01:43.201Z,1.17
2017-10-30T04:04:10.931Z,1.30
2017-10-30T04:06:38.575Z,1.57
2017-10-30T04:09:06.254Z,1.20
2017-10-30T04:11:33.887Z,1.70
2017-10-30T04:14:01.580Z,0.80
2017-10-30T04:16:29.215Z,1.10
2017-10-30T04:18:56.911Z,1.50
2017-10-30T04:21:24.556Z,1.70
2017-10-30T04:23:52.267Z,2.50
2017-10-30T04:26:19.909Z,2.53
2017-10-30T04:28:47.586Z,2.10
2017-10-30T04:31:15.212Z,1.10
2017-10-30T04:33:42.888Z,1.60
2017-10-30T04:36:10.524Z,1.23
2017-10-30T04:38:38.200Z,1.20
2017-10-30T04:41:05.839Z,1.00
2017-10-30T04:43:33.489Z,1.00
2017-10-30T04:46:01.164Z,1.20
2017-10-30T04:48:28.810Z,1.40
2017-10-30T04:50:56.491Z,1.73
2017-10-30T04:53:24.128Z,0.90
2017-10-30T04:55:51.811Z,1.23
2017-10-30T04:58:19.459Z,1.37
2017-10-30T05:00:47.135Z,1.30
2017-10-30T05:03:14.777Z,1.10
2017-10-30T05:05:42.467Z,1.23
2017-10-30T05:08:10.125Z,1.57
2017-10-30T05:10:37.800Z,1.47
2017-10-30T05:13:05.443Z,1.40
2017-10-30T05:15:33.118Z,1.30
2017-10-30T05:18:00.776Z,2.00
2017-10-30T05:20:28.441Z,2.03
2017-10-30T05:22:56.116Z,1.70
2017-10-30T05:25:23.778Z,2.50
2017-10-30T05:27:51.422Z,3.90
2017-10-30T05:30:19.101Z,2.87
2017-10-30T05:32:46.747Z,1.50
2017-10-30T05:35:14.421Z,4.53
2017-10-30T05:37:42.073Z,2.70
2017-10-30T05:40:09.775Z,2.00
2017-10-30T05:42:37.428Z,1.30
2017-10-30T05:45:05.083Z,1.20
2017-10-30T05:47:32.759Z,2.67
2017-10-30T05:50:00.408Z,2.20
2017-10-30T05:52:28.113Z,4.57
2017-10-30T05:54:55.759Z,4.60
2017-10-30T05:57:23.447Z,2.40
2017-10-30T05:59:51.085Z,2.53
2017-10-30T06:02:18.758Z,2.40
2017-10-30T06:04:46.392Z,1.43
2017-10-30T06:07:14.064Z,2.03
2017-10-30T06:09:41.715Z,1.40
2017-10-30T06:12:09.327Z,2.83
2017-10-30T06:14:36.974Z,2.07
2017-10-30T06:17:04.648Z,3.93
2017-10-30T06:19:32.288Z,5.07
2017-10-30T06:21:59.974Z,2.10
2017-10-30T06:24:27.657Z,3.77
2017-10-30T06:26:55.360Z,1.80
2017-10-30T06:29:23.011Z,2.03
2017-10-30T06:31:50.642Z,1.30
2017-10-30T06:34:18.320Z,3.63
2017-10-30T06:36:45.958Z,3.43
2017-10-30T06:39:13.655Z,4.80
2017-10-30T06:41:41.287Z,2.90
2017-10-30T06:44:08.978Z,4.20
2017-10-30T06:46:36.631Z,2.80
2017-10-30T06:49:04.297Z,3.07
2017-10-30T06:51:31.963Z,2.67
2017-10-30T06:53:59.640Z,3.10
2017-10-30T06:56:27.279Z,1.77
2017-10-30T06:58:54.959Z,2.73
2017-10-30T07:01:22.618Z,2.13
2017-10-30T07:03:50.303Z,1.53
2017-10-30T07:06:17.949Z,2.20
2017-10-30T07:08:45.626Z,2.97
2017-10-30T07:11:13.271Z,3.00
2017-10-30T07:13:40.938Z,2.40
2017-10-30T07:16:08.607Z,1.73
2017-10-30T07:18:36.248Z,1.90
2017-10-30T07:21:03.925Z,1.33
2017-10-30T07:23:31.594Z,0.70
2017-10-30T07:25:59.268Z,1.03
2017-10-30T07:28:26.954Z,1.50
2017-10-30T07:30:54.642Z,1.10
2017-10-30T07:33:22.288Z,1.33
2017-10-30T07:35:49.981Z,1.07
2017-10-30T07:38:17.653Z,1.13
2017-10-30T07:40:45.299Z,0.87
2017-10-30T07:43:12.996Z,1.30
2017-10-30T07:45:40.657Z,0.73
2017-10-30T07:48:08.344Z,1.30
2017-10-30T07:50:36.011Z,0.90
2017-10-30T07:53:03.712Z,0.80
2017-10-30T07:55:31.419Z,2.77
2017-10-30T07:57:59.121Z,1.70
2017-10-30T08:00:26.779Z,3.27
2017-10-30T08:02:54.442Z,1.20
2017-10-30T08:05:22.107Z,0.90
2017-10-30T08:07:49.803Z,1.10
2017-10-30T08:10:17.460Z,0.80
2017-10-30T08:12:45.105Z,1.00
2017-10-30T08:15:12.800Z,0.60
2017-10-30T08:17:40.473Z,0.70
2017-10-30T08:20:08.147Z,0.70
2017-10-30T08:22:35.842Z,0.77
2017-10-30T08:25:03.589Z,0.90
2017-10-30T08:27:31.271Z,0.63
2017-10-30T08:29:59.040Z,0.93
2017-10-30T08:32:26.693Z,0.87
2017-10-30T08:34:54.377Z,0.97
2017-10-30T08:37:22.018Z,0.80
2017-10-30T08:39:49.717Z,0.70
2017-10-30T08:42:17.372Z,1.10
2017-10-30T08:44:45.070Z,0.80
2017-10-30T08:47:12.733Z,0.90
2017-10-30T08:49:40.439Z,0.73
2017-10-30T08:52:08.135Z,0.90
2017-10-30T08:54:35.884Z,1.07
2017-10-30T08:57:03.538Z,1.20
2017-10-30T08:59:31.222Z,0.87
2017-10-30T09:01:58.865Z,1.47
2017-10-30T09:04:26.517Z,0.90
2017-10-30T09:06:54.216Z,1.03
2017-10-30T09:09:21.887Z,0.73
2017-10-30T09:11:49.553Z,0.87
2017-10-30T09:14:17.189Z,0.70
2017-10-30T09:16:44.882Z,0.70
2017-10-30T09:19:12.551Z,0.80
2017-10-30T09:21:40.246Z,0.70
2017-10-30T09:24:07.935Z,0.73
2017-10-30T09:26:35.624Z,0.73
2017-10-30T09:29:03.286Z,1.00
2017-10-30T09:31:31.007Z,0.70
2017-10-30T09:33:58.683Z,0.50
2017-10-30T09:36:26.354Z,0.80
2017-10-30T09:38:54.019Z,0.80
2017-10-30T09:41:21.742Z,1.10
2017-10-30T09:43:49.418Z,0.67
2017-10-30T09:46:17.102Z,0.80
2017-10-30T09:48:44.740Z,0.50
2017-10-30T09:51:12.438Z,0.57
2017-10-30T09:53:40.078Z,0.60
2017-10-30T09:56:07.764Z,0.70
2017-10-30T09:58:35.415Z,0.77
2017-10-30T10:01:03.103Z,0.77
2017-10-30T10:03:30.735Z,0.90
2017-10-30T10:05:58.490Z,0.67
2017-10-30T10:08:26.188Z,0.90
2017-10-30T10:10:53.839Z,1.30
2017-10-30T10:13:21.520Z,0.70
2017-10-30T10:15:49.180Z,1.00
2017-10-30T10:18:16.854Z,0.83
2017-10-30T10:20:44.492Z,0.83
2017-10-30T10:23:12.182Z,0.80
2017-10-30T10:25:39.871Z,0.80
2017-10-30T10:28:07.652Z,0.67
2017-10-30T10:30:35.330Z,0.90
2017-10-30T10:33:03.007Z,0.90
2017-10-30T10:35:30.711Z,0.70
2017-10-30T10:37:58.381Z,0.50
2017-10-30T10:40:25.975Z,0.70
2017-10-30T10:42:53.971Z,0.67
2017-10-30T10:45:21.648Z,1.10
2017-10-30T10:47:49.338Z,0.80
2017-10-30T10:50:16.991Z,1.43
2017-10-30T10:52:44.683Z,0.70
2017-10-30T10:55:12.331Z,0.60
2017-10-30T10:57:40.005Z,1.13
2017-10-30T11:00:07.678Z,1.03
2017-10-30T11:02:35.333Z,0.60
2017-10-30T11:05:02.944Z,0.50
2017-10-30T11:07:30.580Z,0.60
2017-10-30T11:09:58.275Z,0.60
2017-10-30T11:12:25.915Z,0.80
2017-10-30T11:14:53.575Z,0.80
2017-10-30T11:17:21.219Z,0.60
2017-10-30T11:19:48.914Z,1.20
2017-10-30T11:22:16.565Z,0.60
2017-10-30T11:24:44.239Z,0.70
2017-10-30T11:27:11.885Z,0.70
2017-10-30T11:29:39.859Z,0.70
2017-10-30T11:32:07.542Z,1.00
2017-10-30T11:34:35.211Z,1.23
2017-10-30T11:37:02.839Z,0.70
2017-10-30T11:39:30.484Z,1.70
2017-10-30T11:41:58.135Z,1.57
2017-10-30T11:44:25.855Z,1.43
2017-10-30T11:46:53.500Z,1.80
2017-10-30T11:49:21.148Z,0.53
2017-10-30T11:51:48.811Z,0.50
2017-10-30T11:54:16.475Z,0.50
2017-10-30T11:56:44.163Z,1.00
2017-10-30T11:59:11.836Z,0.60
2017-10-30T12:01:39.555Z,0.50
2017-10-30T12:04:07.225Z,0.40
2017-10-30T12:06:34.935Z,0.70
2017-10-30T12:09:02.575Z,0.70
2017-10-30T12:11:30.254Z,0.80
2017-10-30T12:13:57.925Z,1.10
2017-10-30T12:16:25.659Z,0.90
2017-10-30T12:18:53.323Z,0.70
2017-10-30T12:21:21.004Z,0.77
2017-10-30T12:23:48.652Z,1.47
2017-10-30T12:26:16.340Z,0.80
2017-10-30T12:28:43.923Z,2.03
2017-10-30T12:31:11.603Z,1.23
2017-10-30T12:33:39.299Z,0.53
2017-10-30T12:36:06.956Z,0.70
2017-10-30T12:38:34.651Z,0.50
2017-10-30T12:41:02.337Z,0.60
2017-10-30T12:43:30.010Z,0.43
2017-10-30T12:45:57.658Z,0.60
2017-10-30T12:48:25.355Z,0.60
2017-10-30T12:50:53.002Z,0.50
2017-10-30T12:53:20.695Z,0.70
2017-10-30T12:55:48.294Z,0.63
2017-10-30T12:58:16.004Z,0.43
2017-10-30T13:00:43.679Z,0.50
2017-10-30T13:03:11.354Z,0.60
2017-10-30T13:05:39.028Z,1.37
2017-10-30T13:08:06.682Z,0.70
2017-10-30T13:10:34.383Z,0.80
2017-10-30T13:13:02.074Z,0.50
2017-10-30T13:15:29.758Z,1.00
2017-10-30T13:17:57.396Z,0.70
2017-10-30T13:20:25.104Z,0.70
2017-10-30T13:22:52.686Z,0.77
2017-10-30T13:25:20.380Z,0.67
2017-10-30T13:27:48.027Z,1.17
2017-10-30T13:30:15.743Z,0.80
2017-10-30T13:32:43.378Z,0.60
2017-10-30T13:35:11.061Z,0.80
2017-10-30T13:37:39.028Z,1.20
2017-10-30T13:40:06.705Z,1.83
2017-10-30T13:42:34.357Z,1.93
2017-10-30T13:45:02.033Z,1.30
2017-10-30T13:47:29.703Z,0.87
2017-10-30T13:49:57.337Z,1.30
2017-10-30T13:52:25.023Z,0.47
2017-10-30T13:54:52.672Z,1.30
2017-10-30T13:57:20.347Z,1.53
2017-10-30T13:59:47.983Z,2.80
2017-10-30T14:02:16.126Z,0.60
2017-10-30T14:04:43.778Z,0.70
2017-10-30T14:07:11.478Z,0.70
2017-10-30T14:09:39.109Z,0.70
2017-10-30T14:12:06.988Z,0.60
2017-10-30T14:14:34.659Z,0.60
2017-10-30T14:17:02.320Z,0.83
2017-10-30T14:19:30.012Z,0.80
2017-10-30T14:21:57.668Z,1.80
2017-10-30T14:24:25.353Z,1.00
2017-10-30T14:26:52.992Z,0.70
2017-10-30T14:29:20.677Z,0.80
2017-10-30T14:31:48.380Z,0.70
2017-10-30T14:34:16.055Z,0.90
2017-10-30T14:36:43.674Z,0.73
2017-10-30T14:39:11.347Z,0.80
2017-10-30T14:41:38.943Z,0.93
2017-10-30T14:44:06.634Z,1.30
2017-10-30T14:46:34.208Z,1.20
2017-10-30T14:49:01.917Z,1.13
2017-10-30T14:51:29.570Z,0.90
2017-10-30T14:53:57.241Z,1.10
2017-10-30T14:56:24.871Z,1.00
2017-10-30T14:58:52.558Z,0.70
2017-10-30T15:01:20.165Z,0.80
2017-10-30T15:03:47.806Z,0.70
2017-10-30T15:06:15.488Z,1.10
2017-10-30T15:08:43.139Z,0.77
2017-10-30T15:11:10.828Z,0.60
2017-10-30T15:13:38.465Z,0.60
2017-10-30T15:16:06.143Z,1.00
2017-10-30T15:18:33.782Z,0.80
2017-10-30T15:21:01.469Z,0.60
2017-10-30T15:23:29.110Z,0.90
2017-10-30T15:25:56.786Z,0.90
2017-10-30T15:28:24.441Z,0.90
2017-10-30T15:30:52.188Z,1.07
2017-10-30T15:33:19.848Z,0.80
2017-10-30T15:35:47.524Z,1.10
2017-10-30T15:38:15.164Z,0.90
2017-10-30T15:40:42.866Z,0.90
2017-10-30T15:43:10.518Z,1.00
2017-10-30T15:45:38.224Z,1.37
2017-10-30T15:48:05.892Z,1.07
2017-10-30T15:50:33.534Z,0.80
2017-10-30T15:53:01.216Z,1.00
2017-10-30T15:55:28.866Z,1.60
2017-10-30T15:57:56.548Z,1.03
2017-10-30T16:00:24.199Z,1.10
2017-10-30T16:02:51.878Z,1.77
2017-10-30T16:05:19.508Z,2.60
2017-10-30T16:07:47.172Z,2.97
2017-10-30T16:10:14.831Z,3.10
2017-10-30T16:12:42.518Z,3.97
2017-10-30T16:15:10.174Z,8.10
2017-10-30T16:17:37.858Z,6.10
2017-10-30T16:20:05.490Z,8.30
2017-10-30T16:22:33.193Z,12.60
2017-10-30T16:25:00.831Z,15.90
2017-10-30T16:27:28.514Z,8.40
2017-10-30T16:29:56.177Z,5.70
2017-10-30T16:32:23.890Z,5.77
2017-10-30T16:34:51.559Z,8.50
2017-10-30T16:37:20.256Z,9.20
2017-10-30T16:39:47.901Z,9.37
2017-10-30T16:42:15.584Z,9.50
2017-10-30T16:44:43.266Z,8.67
2017-10-30T16:47:10.888Z,8.60
2017-10-30T16:49:38.608Z,10.20
2017-10-30T16:52:06.248Z,10.10
2017-10-30T16:54:33.938Z,10.47
2017-10-30T16:57:01.589Z,9.93
2017-10-30T16:59:29.282Z,12.23
2017-10-30T17:01:56.923Z,18.40
2017-10-30T17:04:24.611Z,18.17
2017-10-30T17:06:52.293Z,12.57
2017-10-30T17:09:19.983Z,12.90
2017-10-30T17:11:47.573Z,11.27
2017-10-30T17:14:15.288Z,11.10
2017-10-30T17:16:42.951Z,11.43
2017-10-30T17:19:10.634Z,12.13
2017-10-30T17:21:38.288Z,15.27
2017-10-30T17:24:13.757Z,24.60
2017-10-30T17:26:41.440Z,29.93
2017-10-30T17:29:09.083Z,36.87
2017-10-30T17:31:36.820Z,32.63
2017-10-30T17:34:04.476Z,32.37
2017-10-30T17:36:32.165Z,31.67
2017-10-30T17:38:59.807Z,23.20
2017-10-30T17:41:27.679Z,17.73
2017-10-30T17:43:55.347Z,19.60
2017-10-30T17:46:23.030Z,22.17
2017-10-30T17:48:50.674Z,14.13
2017-10-30T17:51:18.354Z,14.80
2017-10-30T17:53:46.004Z,17.40
2017-10-30T17:56:13.716Z,18.60
2017-10-30T17:58:41.361Z,20.30
2017-10-30T18:01:09.025Z,23.67
2017-10-30T18:03:36.673Z,30.57
2017-10-30T18:06:04.372Z,35.10
2017-10-30T18:08:32.029Z,39.60
2017-10-30T18:10:59.734Z,56.07
2017-10-30T18:13:27.389Z,34.40
2017-10-30T18:15:55.067Z,33.20
2017-10-30T18:18:22.722Z,30.80
2017-10-30T18:20:50.406Z,26.23
2017-10-30T18:23:18.055Z,22.13
2017-10-30T18:25:45.736Z,21.00
2017-10-30T18:28:13.397Z,19.93
2017-10-30T18:30:41.149Z,22.80
2017-10-30T18:33:08.810Z,22.23
2017-10-30T18:35:36.461Z,21.60
2017-10-30T18:38:04.165Z,25.60
2017-10-30T18:40:31.818Z,55.80
2017-10-30T18:42:59.532Z,52.40
2017-10-30T18:45:27.181Z,31.70
2017-10-30T18:47:54.889Z,18.10
2017-10-30T18:50:22.561Z,19.03
2017-10-30T18:52:50.235Z,17.03
2017-10-30T18:55:17.886Z,16.23
2017-10-30T18:57:45.570Z,15.67
2017-10-30T19:00:13.228Z,12.40
2017-10-30T19:02:40.932Z,11.67
2017-10-30T19:05:08.580Z,10.10
2017-10-30T19:07:36.278Z,11.57
2017-10-30T19:10:04.822Z,9.17
2017-10-30T19:12:32.538Z,10.50
2017-10-30T19:15:00.210Z,15.17
2017-10-30T19:17:27.854Z,43.50
2017-10-30T19:19:55.482Z,33.33
2017-10-30T19:22:23.158Z,16.00
2017-10-30T19:24:50.785Z,6.23
2017-10-30T19:27:18.432Z,6.60
2017-10-30T19:29:46.125Z,6.80
2017-10-30T19:32:13.846Z,8.17
2017-10-30T19:34:41.521Z,7.90
2017-10-30T19:37:09.162Z,8.47
2017-10-30T19:39:36.851Z,7.60
2017-10-30T19:42:04.513Z,5.43
2017-10-30T19:44:32.209Z,6.73
2017-10-30T19:46:59.833Z,6.93
2017-10-30T19:49:27.520Z,8.20
2017-10-30T19:51:55.182Z,9.97
2017-10-30T19:54:22.873Z,10.37
2017-10-30T19:56:50.514Z,8.37
2017-10-30T19:59:18.198Z,10.30
2017-10-30T20:01:45.864Z,10.10
2017-10-30T20:04:13.549Z,15.67
2017-10-30T20:06:46.773Z,10.83
2017-10-30T20:09:20.019Z,5.43
2017-10-30T20:11:53.200Z,6.00
2017-10-30T20:14:20.868Z,6.10
2017-10-30T20:16:48.708Z,7.37
2017-10-30T20:19:16.355Z,7.37
2017-10-30T20:21:44.034Z,7.67
2017-10-30T20:24:11.705Z,8.23
2017-10-30T20:26:39.408Z,8.60
2017-10-30T20:29:07.072Z,6.77
2017-10-30T20:31:34.789Z,6.23
2017-10-30T20:34:02.467Z,7.03
2017-10-30T20:36:30.144Z,7.90
2017-10-30T20:38:57.804Z,9.33
2017-10-30T20:41:25.533Z,9.43
2017-10-30T20:43:53.178Z,10.30
2017-10-30T20:46:20.877Z,10.40
2017-10-30T20:48:48.519Z,9.27
2017-10-30T20:51:16.210Z,9.80
2017-10-30T20:53:43.875Z,9.63
2017-10-30T20:56:11.585Z,9.03
2017-10-30T20:58:39.283Z,9.30
2017-10-30T21:01:06.870Z,8.33
2017-10-30T21:03:34.588Z,8.77
2017-10-30T21:06:02.217Z,8.50
2017-10-30T21:08:29.907Z,7.53
2017-10-30T21:10:57.575Z,7.00
2017-10-30T21:13:25.247Z,7.27
2017-10-30T21:15:52.938Z,6.73
2017-10-30T21:18:20.622Z,7.27
2017-10-30T21:20:48.281Z,7.90
2017-10-30T21:23:15.977Z,10.23
2017-10-30T21:25:43.618Z,9.20
2017-10-30T21:28:11.313Z,11.77
2017-10-30T21:30:39.810Z,10.00
2017-10-30T21:33:07.493Z,11.17
2017-10-30T21:35:35.130Z,11.97
2017-10-30T21:38:02.816Z,13.00
2017-10-30T21:40:30.486Z,11.93
2017-10-30T21:42:58.166Z,14.20
2017-10-30T21:45:25.819Z,13.90
2017-10-30T21:47:53.478Z,12.43
2017-10-30T21:50:21.173Z,10.47
2017-10-30T21:52:48.822Z,9.53
2017-10-30T21:55:16.511Z,6.87
2017-10-30T21:57:44.155Z,10.20
2017-10-30T22:00:11.872Z,11.70
2017-10-30T22:02:39.496Z,9.00
2017-10-30T22:05:07.183Z,14.77
2017-10-30T22:07:34.827Z,9.60
2017-10-30T22:10:02.503Z,9.23
2017-10-30T22:12:30.166Z,9.30
2017-10-30T22:14:57.857Z,10.20
2017-10-30T22:17:25.500Z,9.00
2017-10-30T22:19:53.192Z,7.23
2017-10-30T22:22:20.857Z,5.80
2017-10-30T22:24:48.566Z,4.23
2017-10-30T22:27:16.211Z,4.60
2017-10-30T22:29:43.852Z,4.60
2017-10-30T22:32:11.556Z,3.90
2017-10-30T22:34:39.204Z,3.87
2017-10-30T22:37:06.873Z,3.40
2017-10-30T22:39:34.509Z,3.40
2017-10-30T22:42:02.195Z,3.57
2017-10-30T22:44:29.832Z,3.17
2017-10-30T22:46:57.525Z,5.77
2017-10-30T22:49:25.164Z,5.20
2017-10-30T22:51:52.834Z,4.23
2017-10-30T22:54:20.478Z,7.17
2017-10-30T22:56:48.158Z,4.10
2017-10-30T22:59:15.802Z,3.50
2017-10-30T23:01:43.527Z,5.60
2017-10-30T23:04:11.161Z,2.77
2017-10-30T23:06:38.822Z,3.10
2017-10-30T23:09:06.470Z,2.57
2017-10-30T23:11:34.127Z,5.20
2017-10-30T23:14:01.821Z,2.67
2017-10-30T23:16:29.462Z,3.17
2017-10-30T23:18:57.146Z,2.37
2017-10-30T23:21:24.798Z,3.77
2017-10-30T23:23:52.491Z,4.30
2017-10-30T23:26:20.210Z,5.17
2017-10-30T23:28:47.909Z,4.27
2017-10-30T23:31:15.613Z,4.60
2017-10-30T23:33:43.290Z,4.57
2017-10-30T23:36:10.953Z,5.60
2017-10-30T23:38:38.643Z,4.30
2017-10-30T23:41:06.269Z,2.80
2017-10-30T23:43:33.963Z,2.50
2017-10-30T23:46:01.623Z,2.30
2017-10-30T23:48:29.261Z,2.07
2017-10-30T23:50:56.878Z,2.83
2017-10-30T23:53:24.506Z,2.20
2017-10-30T23:55:52.197Z,2.90
2017-10-30T23:58:19.834Z,3.00
